AEE625 EHAM-LGAV
Flight info
| Callsign | AEE625 |
|---|---|
| Flight time | 2h 51m |
| Altitude | 33000 |
| Route | EDUPO Z739 MISGO DCT DOJOH DCT DODEN DCT NEGIX DCT DINKU M867 XERUM DCT BAVAX DCT RADIZ DCT LUMUS DCT GORPA DCT ELTIB DCT PINDO DCT PIKOS UL607 XORKI |
| Aircraft | A321/M-SDE3FGHIRWY/LB1 |
Departure
| Time | 2026-05-07 04:19 |
|---|---|
| Airport | Amsterdam Airport Schiphol (EHAM) |
Arrival
| Time | 2026-05-07 07:10 |
|---|---|
| Airport | Athens Eleftherios Venizelos International Airport (LGAV) |
| Time | Latitude | Longitude | Altitude | Speed | Heading |
|---|---|---|---|---|---|
| 2026-05-07 03:56 | 52.30792 | 4.77357 | -2 ft | 0 kts | 184° |
| 2026-05-07 04:12 | 52.30800 | 4.77358 | -3 ft | 2 kts | 173° |
| 2026-05-07 04:12 | 52.30816 | 4.77355 | -3 ft | 2 kts | 163° |
| 2026-05-07 04:12 | 52.30831 | 4.77345 | -3 ft | 2 kts | 131° |
| 2026-05-07 04:12 | 52.30840 | 4.77322 | -3 ft | 2 kts | 101° |
| 2026-05-07 04:13 | 52.30842 | 4.77303 | -3 ft | 1 kts | 93° |
| 2026-05-07 04:13 | 52.30842 | 4.77300 | -3 ft | 0 kts | 93° |
| 2026-05-07 04:15 | 52.30841 | 4.77309 | -3 ft | 1 kts | 93° |
| 2026-05-07 04:15 | 52.30841 | 4.77331 | -3 ft | 3 kts | 93° |
| 2026-05-07 04:15 | 52.30839 | 4.77369 | -3 ft | 4 kts | 93° |
| 2026-05-07 04:16 | 52.30833 | 4.77421 | -3 ft | 5 kts | 113° |
| 2026-05-07 04:16 | 52.30794 | 4.77460 | -3 ft | 8 kts | 167° |
| 2026-05-07 04:16 | 52.30724 | 4.77458 | -3 ft | 12 kts | 181° |
| 2026-05-07 04:16 | 52.30635 | 4.77492 | -3 ft | 15 kts | 157° |
| 2026-05-07 04:17 | 52.30558 | 4.77552 | -3 ft | 11 kts | 154° |
| 2026-05-07 04:17 | 52.30488 | 4.77610 | -2 ft | 11 kts | 153° |
| 2026-05-07 04:17 | 52.30412 | 4.77608 | -2 ft | 14 kts | 213° |
| 2026-05-07 04:17 | 52.30375 | 4.77533 | -3 ft | 2 kts | 237° |
| 2026-05-07 04:18 | 52.30301 | 4.77347 | -6 ft | 52 kts | 237° |
| 2026-05-07 04:18 | 52.29985 | 4.76519 | -3 ft | 117 kts | 237° |
| 2026-05-07 04:18 | 52.29449 | 4.75132 | -5 ft | 169 kts | 237° |
| 2026-05-07 04:18 | 52.28782 | 4.73453 | 490 ft | 177 kts | 239° |
| 2026-05-07 04:19 | 52.28119 | 4.71738 | 1210 ft | 179 kts | 240° |
| 2026-05-07 04:19 | 52.27454 | 4.70000 | 1843 ft | 185 kts | 239° |
| 2026-05-07 04:19 | 52.26548 | 4.68393 | 2076 ft | 205 kts | 211° |
| 2026-05-07 04:19 | 52.25130 | 4.67807 | 2216 ft | 223 kts | 174° |
| 2026-05-07 04:20 | 52.23681 | 4.68763 | 2511 ft | 231 kts | 135° |
| 2026-05-07 04:20 | 52.22809 | 4.70927 | 3081 ft | 230 kts | 109° |
| 2026-05-07 04:20 | 52.22130 | 4.73312 | 3687 ft | 234 kts | 116° |
| 2026-05-07 04:21 | 52.20790 | 4.77181 | 4745 ft | 238 kts | 118° |
| 2026-05-07 04:21 | 52.19582 | 4.80463 | 5063 ft | 265 kts | 119° |
| 2026-05-07 04:21 | 52.18940 | 4.82190 | 5386 ft | 271 kts | 119° |
| 2026-05-07 04:21 | 52.18057 | 4.84899 | 6050 ft | 271 kts | 109° |
| 2026-05-07 04:22 | 52.17670 | 4.87880 | 6715 ft | 270 kts | 91° |
| 2026-05-07 04:22 | 52.17871 | 4.90915 | 7290 ft | 272 kts | 73° |
| 2026-05-07 04:22 | 52.18435 | 4.93875 | 7844 ft | 276 kts | 71° |
| 2026-05-07 04:22 | 52.19012 | 4.96889 | 8400 ft | 281 kts | 71° |
| 2026-05-07 04:23 | 52.19594 | 4.99949 | 8966 ft | 285 kts | 71° |
| 2026-05-07 04:23 | 52.20186 | 5.03052 | 9519 ft | 289 kts | 72° |
| 2026-05-07 04:23 | 52.20782 | 5.06207 | 10065 ft | 293 kts | 72° |
| 2026-05-07 04:23 | 52.21391 | 5.09452 | 10299 ft | 308 kts | 72° |
| 2026-05-07 04:24 | 52.22034 | 5.12900 | 10432 ft | 326 kts | 72° |
| 2026-05-07 04:24 | 52.22704 | 5.16522 | 10552 ft | 342 kts | 74° |
| 2026-05-07 04:24 | 52.23130 | 5.20450 | 10680 ft | 358 kts | 86° |
| 2026-05-07 04:24 | 52.23065 | 5.24540 | 10806 ft | 373 kts | 97° |
| 2026-05-07 04:25 | 52.22465 | 5.28707 | 11079 ft | 382 kts | 109° |
| 2026-05-07 04:25 | 52.21342 | 5.32645 | 11508 ft | 385 kts | 122° |
| 2026-05-07 04:25 | 52.19831 | 5.36265 | 11951 ft | 388 kts | 126° |
| 2026-05-07 04:25 | 52.18271 | 5.39870 | 12430 ft | 390 kts | 126° |
| 2026-05-07 04:26 | 52.16695 | 5.43486 | 12892 ft | 393 kts | 126° |
| 2026-05-07 04:26 | 52.15104 | 5.47123 | 13350 ft | 396 kts | 126° |
| 2026-05-07 04:26 | 52.13498 | 5.50791 | 13809 ft | 399 kts | 126° |
| 2026-05-07 04:26 | 52.11879 | 5.54485 | 14216 ft | 402 kts | 126° |
| 2026-05-07 04:27 | 52.10255 | 5.58196 | 14635 ft | 404 kts | 126° |
| 2026-05-07 04:27 | 52.08613 | 5.61942 | 15053 ft | 406 kts | 126° |
| 2026-05-07 04:27 | 52.06967 | 5.65692 | 15443 ft | 409 kts | 126° |
| 2026-05-07 04:27 | 52.05213 | 5.69321 | 15823 ft | 410 kts | 132° |
| 2026-05-07 04:28 | 52.03332 | 5.72833 | 16216 ft | 413 kts | 132° |
| 2026-05-07 04:28 | 52.01442 | 5.76356 | 16631 ft | 415 kts | 132° |
| 2026-05-07 04:28 | 51.99540 | 5.79893 | 17017 ft | 417 kts | 132° |
| 2026-05-07 04:28 | 51.97626 | 5.83448 | 17392 ft | 419 kts | 132° |
| 2026-05-07 04:29 | 51.95706 | 5.87018 | 17760 ft | 421 kts | 132° |
| 2026-05-07 04:29 | 51.93778 | 5.90613 | 18136 ft | 424 kts | 131° |
| 2026-05-07 04:29 | 51.91846 | 5.94228 | 18483 ft | 426 kts | 131° |
| 2026-05-07 04:29 | 51.89902 | 5.97862 | 18812 ft | 427 kts | 132° |
| 2026-05-07 04:30 | 51.87948 | 6.01502 | 19131 ft | 429 kts | 132° |
| 2026-05-07 04:30 | 51.85983 | 6.05153 | 19457 ft | 431 kts | 132° |
| 2026-05-07 04:30 | 51.84007 | 6.08815 | 19786 ft | 433 kts | 132° |
| 2026-05-07 04:30 | 51.82012 | 6.12486 | 20120 ft | 435 kts | 132° |
| 2026-05-07 04:31 | 51.80005 | 6.16154 | 20455 ft | 437 kts | 132° |
| 2026-05-07 04:31 | 51.77981 | 6.19845 | 20783 ft | 439 kts | 132° |
| 2026-05-07 04:31 | 51.75958 | 6.23538 | 21099 ft | 441 kts | 132° |
| 2026-05-07 04:31 | 51.73922 | 6.27255 | 21412 ft | 443 kts | 132° |
| 2026-05-07 04:32 | 51.71878 | 6.30988 | 21721 ft | 444 kts | 132° |
| 2026-05-07 04:32 | 51.69828 | 6.34722 | 22054 ft | 446 kts | 132° |
| 2026-05-07 04:32 | 51.67769 | 6.38467 | 22373 ft | 447 kts | 132° |
| 2026-05-07 04:32 | 51.65725 | 6.42178 | 22674 ft | 449 kts | 133° |
| 2026-05-07 04:33 | 51.63620 | 6.45987 | 22981 ft | 451 kts | 133° |
| 2026-05-07 04:33 | 51.61555 | 6.49723 | 23263 ft | 453 kts | 132° |
| 2026-05-07 04:33 | 51.59459 | 6.53509 | 23554 ft | 455 kts | 132° |
| 2026-05-07 04:33 | 51.57353 | 6.57311 | 23793 ft | 456 kts | 132° |
| 2026-05-07 04:34 | 51.55235 | 6.61132 | 24054 ft | 458 kts | 132° |
| 2026-05-07 04:34 | 51.53111 | 6.64956 | 24302 ft | 459 kts | 132° |
| 2026-05-07 04:34 | 51.50977 | 6.68790 | 24545 ft | 461 kts | 132° |
| 2026-05-07 04:34 | 51.48837 | 6.72627 | 24789 ft | 463 kts | 132° |
| 2026-05-07 04:35 | 51.46683 | 6.76483 | 25038 ft | 464 kts | 132° |
| 2026-05-07 04:35 | 51.44525 | 6.80336 | 25267 ft | 465 kts | 132° |
| 2026-05-07 04:35 | 51.42363 | 6.84194 | 25491 ft | 466 kts | 132° |
| 2026-05-07 04:35 | 51.40187 | 6.88052 | 25697 ft | 467 kts | 133° |
| 2026-05-07 04:36 | 51.37943 | 6.91813 | 25906 ft | 468 kts | 135° |
| 2026-05-07 04:36 | 51.35623 | 6.95474 | 26117 ft | 469 kts | 136° |
| 2026-05-07 04:36 | 51.33258 | 6.99063 | 26375 ft | 468 kts | 137° |
| 2026-05-07 04:36 | 51.30879 | 7.02624 | 26636 ft | 468 kts | 137° |
| 2026-05-07 04:37 | 51.28509 | 7.06183 | 26926 ft | 467 kts | 137° |
| 2026-05-07 04:37 | 51.26157 | 7.09751 | 27181 ft | 467 kts | 137° |
| 2026-05-07 04:37 | 51.23816 | 7.13338 | 27470 ft | 466 kts | 136° |
| 2026-05-07 04:37 | 51.21485 | 7.16935 | 27725 ft | 466 kts | 136° |
| 2026-05-07 04:38 | 51.19170 | 7.20527 | 28049 ft | 464 kts | 136° |
| 2026-05-07 04:38 | 51.16855 | 7.24119 | 28307 ft | 463 kts | 136° |
| 2026-05-07 04:38 | 51.14547 | 7.27682 | 28614 ft | 462 kts | 136° |
| 2026-05-07 04:38 | 51.12237 | 7.31230 | 28945 ft | 460 kts | 136° |
| 2026-05-07 04:39 | 51.09930 | 7.34752 | 29217 ft | 459 kts | 136° |
| 2026-05-07 04:39 | 51.07619 | 7.38266 | 29430 ft | 460 kts | 136° |
| 2026-05-07 04:39 | 51.05305 | 7.41780 | 29699 ft | 459 kts | 136° |
| 2026-05-07 04:39 | 51.02998 | 7.45285 | 29971 ft | 459 kts | 136° |
| 2026-05-07 04:40 | 51.00693 | 7.48788 | 30171 ft | 459 kts | 136° |
| 2026-05-07 04:40 | 50.98417 | 7.52245 | 30406 ft | 459 kts | 136° |
| 2026-05-07 04:40 | 50.96111 | 7.55743 | 30641 ft | 457 kts | 136° |
| 2026-05-07 04:40 | 50.93814 | 7.59226 | 30872 ft | 456 kts | 137° |
| 2026-05-07 04:41 | 50.91523 | 7.62696 | 31103 ft | 455 kts | 137° |
| 2026-05-07 04:41 | 50.89232 | 7.66153 | 31307 ft | 454 kts | 137° |
| 2026-05-07 04:41 | 50.86947 | 7.69593 | 31509 ft | 453 kts | 137° |
| 2026-05-07 04:41 | 50.84663 | 7.73034 | 31710 ft | 454 kts | 137° |
| 2026-05-07 04:42 | 50.82376 | 7.76477 | 31888 ft | 453 kts | 137° |
| 2026-05-07 04:42 | 50.80086 | 7.79904 | 32081 ft | 453 kts | 137° |
| 2026-05-07 04:42 | 50.77799 | 7.83307 | 32252 ft | 453 kts | 138° |
| 2026-05-07 04:42 | 50.75497 | 7.86723 | 32439 ft | 453 kts | 137° |
| 2026-05-07 04:43 | 50.73208 | 7.90122 | 32636 ft | 452 kts | 137° |
| 2026-05-07 04:43 | 50.70920 | 7.93522 | 32836 ft | 451 kts | 137° |
| 2026-05-07 04:43 | 50.66340 | 8.00320 | 32920 ft | 452 kts | 137° |
| 2026-05-07 04:44 | 50.61754 | 8.07086 | 32951 ft | 451 kts | 138° |
| 2026-05-07 04:44 | 50.57599 | 8.14491 | 32957 ft | 453 kts | 129° |
| 2026-05-07 04:45 | 50.53657 | 8.22249 | 32947 ft | 454 kts | 129° |
| 2026-05-07 04:45 | 50.49713 | 8.29983 | 32944 ft | 454 kts | 129° |
| 2026-05-07 04:46 | 50.45765 | 8.37706 | 32950 ft | 454 kts | 129° |
| 2026-05-07 04:46 | 50.41808 | 8.45442 | 32957 ft | 454 kts | 129° |
| 2026-05-07 04:47 | 50.37841 | 8.53141 | 32959 ft | 454 kts | 130° |
| 2026-05-07 04:47 | 50.33648 | 8.60542 | 32969 ft | 454 kts | 134° |
| 2026-05-07 04:48 | 50.29268 | 8.67673 | 32967 ft | 454 kts | 135° |
| 2026-05-07 04:48 | 50.24894 | 8.74798 | 32969 ft | 454 kts | 135° |
| 2026-05-07 04:49 | 50.20596 | 8.81930 | 32967 ft | 454 kts | 134° |
| 2026-05-07 04:49 | 50.16280 | 8.89126 | 32965 ft | 454 kts | 134° |
| 2026-05-07 04:50 | 50.11958 | 8.96299 | 32964 ft | 454 kts | 134° |
| 2026-05-07 04:50 | 50.07617 | 9.03458 | 32963 ft | 454 kts | 134° |
| 2026-05-07 04:51 | 50.03282 | 9.10594 | 32955 ft | 454 kts | 134° |
| 2026-05-07 04:51 | 49.98937 | 9.17737 | 32948 ft | 454 kts | 134° |
| 2026-05-07 04:52 | 49.94603 | 9.24837 | 32961 ft | 453 kts | 134° |
| 2026-05-07 04:52 | 49.90257 | 9.31914 | 32954 ft | 452 kts | 134° |
| 2026-05-07 04:53 | 49.85917 | 9.38972 | 32952 ft | 452 kts | 134° |
| 2026-05-07 04:53 | 49.81581 | 9.46021 | 32945 ft | 452 kts | 134° |
| 2026-05-07 04:54 | 49.77243 | 9.53062 | 32938 ft | 452 kts | 135° |
| 2026-05-07 04:54 | 49.72899 | 9.60082 | 32941 ft | 452 kts | 135° |
| 2026-05-07 04:55 | 49.68547 | 9.67078 | 32933 ft | 452 kts | 135° |
| 2026-05-07 04:55 | 49.64212 | 9.74034 | 32937 ft | 452 kts | 135° |
| 2026-05-07 04:56 | 49.59848 | 9.81020 | 32933 ft | 452 kts | 135° |
| 2026-05-07 04:56 | 49.55482 | 9.87999 | 32936 ft | 452 kts | 135° |
| 2026-05-07 04:57 | 49.51110 | 9.94966 | 32936 ft | 452 kts | 135° |
| 2026-05-07 04:57 | 49.46742 | 10.01895 | 32943 ft | 451 kts | 136° |
| 2026-05-07 04:58 | 49.42374 | 10.08805 | 32943 ft | 450 kts | 136° |
| 2026-05-07 04:58 | 49.38009 | 10.15707 | 32942 ft | 450 kts | 136° |
| 2026-05-07 04:59 | 49.33638 | 10.22584 | 32947 ft | 450 kts | 136° |
| 2026-05-07 04:59 | 49.29265 | 10.29439 | 32943 ft | 449 kts | 136° |
| 2026-05-07 05:00 | 49.24888 | 10.36262 | 32958 ft | 448 kts | 139° |
| 2026-05-07 05:00 | 49.19854 | 10.41745 | 32978 ft | 444 kts | 151° |
| 2026-05-07 05:01 | 49.14545 | 10.46568 | 32977 ft | 444 kts | 151° |
| 2026-05-07 05:01 | 49.09277 | 10.51352 | 32992 ft | 444 kts | 151° |
| 2026-05-07 05:02 | 49.03970 | 10.56170 | 32987 ft | 444 kts | 151° |
| 2026-05-07 05:02 | 48.98655 | 10.60984 | 32959 ft | 445 kts | 152° |
| 2026-05-07 05:03 | 48.93341 | 10.65786 | 32987 ft | 443 kts | 152° |
| 2026-05-07 05:03 | 48.88038 | 10.70554 | 32996 ft | 443 kts | 152° |
| 2026-05-07 05:04 | 48.82754 | 10.75353 | 32989 ft | 443 kts | 148° |
| 2026-05-07 05:04 | 48.78184 | 10.81681 | 32973 ft | 449 kts | 135° |
| 2026-05-07 05:05 | 48.74012 | 10.88728 | 32954 ft | 449 kts | 135° |
| 2026-05-07 05:05 | 48.69812 | 10.95752 | 32934 ft | 450 kts | 136° |
| 2026-05-07 05:06 | 48.65611 | 11.02753 | 32955 ft | 449 kts | 136° |
| 2026-05-07 05:06 | 48.61413 | 11.09745 | 32963 ft | 449 kts | 136° |
| 2026-05-07 05:07 | 48.57929 | 11.15548 | 32965 ft | 448 kts | 136° |
| 2026-05-07 05:07 | 48.53047 | 11.23638 | 32965 ft | 448 kts | 137° |
| 2026-05-07 05:08 | 48.48840 | 11.30577 | 32922 ft | 448 kts | 137° |
| 2026-05-07 05:08 | 48.45318 | 11.36381 | 32951 ft | 448 kts | 138° |
| 2026-05-07 05:09 | 48.41140 | 11.43258 | 32985 ft | 447 kts | 138° |
| 2026-05-07 05:09 | 48.36914 | 11.50202 | 32993 ft | 447 kts | 138° |
| 2026-05-07 05:10 | 48.32737 | 11.57042 | 32994 ft | 447 kts | 138° |
| 2026-05-07 05:10 | 48.28522 | 11.63894 | 32977 ft | 446 kts | 138° |
| 2026-05-07 05:11 | 48.24246 | 11.70611 | 32976 ft | 442 kts | 142° |
| 2026-05-07 05:11 | 48.19738 | 11.76836 | 32983 ft | 439 kts | 144° |
| 2026-05-07 05:12 | 48.15158 | 11.82888 | 32986 ft | 439 kts | 144° |
| 2026-05-07 05:12 | 48.10621 | 11.88995 | 32982 ft | 439 kts | 143° |
| 2026-05-07 05:13 | 48.06117 | 11.95166 | 32979 ft | 439 kts | 143° |
| 2026-05-07 05:13 | 48.01625 | 12.01336 | 32947 ft | 438 kts | 144° |
| 2026-05-07 05:14 | 47.97130 | 12.07464 | 32961 ft | 438 kts | 144° |
| 2026-05-07 05:14 | 47.92625 | 12.13571 | 32972 ft | 437 kts | 144° |
| 2026-05-07 05:15 | 47.88116 | 12.19658 | 32977 ft | 437 kts | 144° |
| 2026-05-07 05:15 | 47.83603 | 12.25735 | 32982 ft | 437 kts | 144° |
| 2026-05-07 05:16 | 47.79095 | 12.31805 | 32984 ft | 437 kts | 144° |
| 2026-05-07 05:16 | 47.74580 | 12.37875 | 32991 ft | 437 kts | 144° |
| 2026-05-07 05:17 | 47.70070 | 12.43929 | 32986 ft | 437 kts | 145° |
| 2026-05-07 05:17 | 47.65554 | 12.49962 | 32987 ft | 437 kts | 144° |
| 2026-05-07 05:18 | 47.61153 | 12.56213 | 32989 ft | 442 kts | 140° |
| 2026-05-07 05:18 | 47.57012 | 12.62867 | 32976 ft | 442 kts | 140° |
| 2026-05-07 05:19 | 47.52850 | 12.69549 | 32973 ft | 441 kts | 140° |
| 2026-05-07 05:19 | 47.48679 | 12.76222 | 32980 ft | 440 kts | 140° |
| 2026-05-07 05:20 | 47.44516 | 12.82859 | 32988 ft | 440 kts | 140° |
| 2026-05-07 05:20 | 47.40352 | 12.89474 | 32990 ft | 440 kts | 140° |
| 2026-05-07 05:21 | 47.34091 | 12.99390 | 32966 ft | 439 kts | 140° |
| 2026-05-07 05:22 | 47.29961 | 13.05929 | 32990 ft | 439 kts | 140° |
| 2026-05-07 05:22 | 47.25774 | 13.12535 | 32991 ft | 438 kts | 141° |
| 2026-05-07 05:23 | 47.21613 | 13.19084 | 32993 ft | 437 kts | 141° |
| 2026-05-07 05:23 | 47.17455 | 13.25611 | 32996 ft | 438 kts | 141° |
| 2026-05-07 05:24 | 47.13290 | 13.32125 | 32947 ft | 437 kts | 141° |
| 2026-05-07 05:24 | 47.09158 | 13.38567 | 32963 ft | 435 kts | 141° |
| 2026-05-07 05:25 | 47.05001 | 13.45038 | 32975 ft | 435 kts | 141° |
| 2026-05-07 05:25 | 47.00839 | 13.51504 | 32988 ft | 436 kts | 141° |
| 2026-05-07 05:26 | 46.96671 | 13.57970 | 32997 ft | 436 kts | 141° |
| 2026-05-07 05:26 | 46.92501 | 13.64419 | 32966 ft | 436 kts | 142° |
| 2026-05-07 05:27 | 46.88336 | 13.70842 | 32977 ft | 435 kts | 142° |
| 2026-05-07 05:27 | 46.84170 | 13.77256 | 32987 ft | 435 kts | 142° |
| 2026-05-07 05:28 | 46.79991 | 13.83660 | 32989 ft | 434 kts | 142° |
| 2026-05-07 05:28 | 46.75823 | 13.90037 | 32992 ft | 434 kts | 142° |
| 2026-05-07 05:29 | 46.71684 | 13.96364 | 32942 ft | 434 kts | 142° |
| 2026-05-07 05:29 | 46.67493 | 14.02743 | 32955 ft | 435 kts | 142° |
| 2026-05-07 05:30 | 46.63297 | 14.09117 | 32963 ft | 436 kts | 142° |
| 2026-05-07 05:30 | 46.59095 | 14.15480 | 32970 ft | 436 kts | 142° |
| 2026-05-07 05:31 | 46.54876 | 14.21827 | 32978 ft | 436 kts | 142° |
| 2026-05-07 05:31 | 46.50642 | 14.28139 | 32952 ft | 437 kts | 142° |
| 2026-05-07 05:32 | 46.46368 | 14.34487 | 32955 ft | 441 kts | 142° |
| 2026-05-07 05:32 | 46.42073 | 14.40872 | 32960 ft | 443 kts | 142° |
| 2026-05-07 05:33 | 46.37755 | 14.47277 | 32976 ft | 445 kts | 142° |
| 2026-05-07 05:33 | 46.33430 | 14.53678 | 32985 ft | 445 kts | 142° |
| 2026-05-07 05:34 | 46.29099 | 14.60068 | 32949 ft | 444 kts | 142° |
| 2026-05-07 05:34 | 46.24796 | 14.66412 | 32973 ft | 444 kts | 142° |
| 2026-05-07 05:35 | 46.20466 | 14.72767 | 32975 ft | 444 kts | 142° |
| 2026-05-07 05:35 | 46.16129 | 14.79120 | 32989 ft | 444 kts | 142° |
| 2026-05-07 05:36 | 46.11794 | 14.85452 | 33000 ft | 444 kts | 142° |
| 2026-05-07 05:36 | 46.07456 | 14.91772 | 32987 ft | 443 kts | 142° |
| 2026-05-07 05:37 | 46.03119 | 14.98090 | 32997 ft | 443 kts | 142° |
| 2026-05-07 05:37 | 45.98772 | 15.04395 | 33004 ft | 443 kts | 142° |
| 2026-05-07 05:38 | 45.94422 | 15.10682 | 33006 ft | 443 kts | 142° |
| 2026-05-07 05:38 | 45.90105 | 15.16919 | 32961 ft | 443 kts | 142° |
| 2026-05-07 05:39 | 45.85748 | 15.23217 | 32971 ft | 445 kts | 142° |
| 2026-05-07 05:39 | 45.81371 | 15.29499 | 32981 ft | 446 kts | 142° |
| 2026-05-07 05:40 | 45.76915 | 15.35667 | 32993 ft | 441 kts | 148° |
| 2026-05-07 05:40 | 45.71985 | 15.40786 | 33002 ft | 438 kts | 151° |
| 2026-05-07 05:41 | 45.67029 | 15.45869 | 32999 ft | 438 kts | 151° |
| 2026-05-07 05:41 | 45.62071 | 15.50950 | 33004 ft | 438 kts | 151° |
| 2026-05-07 05:42 | 45.57103 | 15.56010 | 33005 ft | 438 kts | 151° |
| 2026-05-07 05:42 | 45.52136 | 15.61051 | 33008 ft | 438 kts | 151° |
| 2026-05-07 05:43 | 45.47167 | 15.66094 | 33000 ft | 438 kts | 151° |
| 2026-05-07 05:43 | 45.42200 | 15.71133 | 32961 ft | 439 kts | 151° |
| 2026-05-07 05:44 | 45.37205 | 15.76181 | 32965 ft | 441 kts | 151° |
| 2026-05-07 05:44 | 45.32201 | 15.81233 | 32985 ft | 442 kts | 151° |
| 2026-05-07 05:45 | 45.27180 | 15.86296 | 32988 ft | 442 kts | 151° |
| 2026-05-07 05:45 | 45.22182 | 15.91309 | 32995 ft | 443 kts | 151° |
| 2026-05-07 05:46 | 45.17148 | 15.96346 | 32974 ft | 443 kts | 151° |
| 2026-05-07 05:46 | 45.12111 | 16.01387 | 32983 ft | 444 kts | 151° |
| 2026-05-07 05:47 | 45.07059 | 16.06435 | 32997 ft | 444 kts | 151° |
| 2026-05-07 05:47 | 45.01997 | 16.11471 | 32994 ft | 445 kts | 151° |
| 2026-05-07 05:48 | 44.96940 | 16.16491 | 33012 ft | 444 kts | 151° |
| 2026-05-07 05:48 | 44.91882 | 16.21496 | 32992 ft | 444 kts | 152° |
| 2026-05-07 05:49 | 44.86823 | 16.26511 | 32998 ft | 444 kts | 152° |
| 2026-05-07 05:49 | 44.81777 | 16.31494 | 33017 ft | 443 kts | 152° |
| 2026-05-07 05:50 | 44.76713 | 16.36481 | 33014 ft | 444 kts | 152° |
| 2026-05-07 05:50 | 44.71682 | 16.41430 | 33035 ft | 443 kts | 152° |
| 2026-05-07 05:51 | 44.66637 | 16.46378 | 32996 ft | 442 kts | 152° |
| 2026-05-07 05:51 | 44.61591 | 16.51310 | 33017 ft | 442 kts | 152° |
| 2026-05-07 05:52 | 44.56537 | 16.56238 | 33026 ft | 442 kts | 152° |
| 2026-05-07 05:52 | 44.51489 | 16.61159 | 33037 ft | 441 kts | 152° |
| 2026-05-07 05:53 | 44.46455 | 16.66057 | 33047 ft | 441 kts | 152° |
| 2026-05-07 05:53 | 44.41416 | 16.70939 | 33026 ft | 440 kts | 152° |
| 2026-05-07 05:54 | 44.36381 | 16.75820 | 33043 ft | 440 kts | 152° |
| 2026-05-07 05:54 | 44.32188 | 16.79871 | 33045 ft | 440 kts | 152° |
| 2026-05-07 05:55 | 44.27335 | 16.85173 | 33064 ft | 445 kts | 146° |
| 2026-05-07 05:55 | 44.22606 | 16.90718 | 33070 ft | 444 kts | 146° |
| 2026-05-07 05:56 | 44.17876 | 16.96247 | 33059 ft | 444 kts | 146° |
| 2026-05-07 05:56 | 44.13146 | 17.01777 | 33065 ft | 444 kts | 146° |
| 2026-05-07 05:57 | 44.08415 | 17.07299 | 33072 ft | 444 kts | 146° |
| 2026-05-07 05:57 | 44.03675 | 17.12810 | 33081 ft | 443 kts | 146° |
| 2026-05-07 05:58 | 43.98934 | 17.18301 | 33087 ft | 444 kts | 146° |
| 2026-05-07 05:58 | 43.94194 | 17.23785 | 33062 ft | 444 kts | 146° |
| 2026-05-07 05:59 | 43.89441 | 17.29271 | 33075 ft | 445 kts | 146° |
| 2026-05-07 05:59 | 43.84680 | 17.34757 | 33080 ft | 445 kts | 146° |
| 2026-05-07 06:00 | 43.79909 | 17.40242 | 33096 ft | 445 kts | 146° |
| 2026-05-07 06:00 | 43.75137 | 17.45717 | 33080 ft | 445 kts | 146° |
| 2026-05-07 06:01 | 43.70362 | 17.51181 | 33087 ft | 446 kts | 146° |
| 2026-05-07 06:01 | 43.65569 | 17.56651 | 33086 ft | 447 kts | 146° |
| 2026-05-07 06:02 | 43.60797 | 17.62087 | 33098 ft | 448 kts | 147° |
| 2026-05-07 06:02 | 43.55992 | 17.67556 | 33099 ft | 448 kts | 147° |
| 2026-05-07 06:03 | 43.51175 | 17.73027 | 33111 ft | 449 kts | 147° |
| 2026-05-07 06:03 | 43.46348 | 17.78492 | 33103 ft | 449 kts | 147° |
| 2026-05-07 06:04 | 43.41512 | 17.83949 | 33091 ft | 450 kts | 147° |
| 2026-05-07 06:04 | 43.36673 | 17.89397 | 33093 ft | 450 kts | 147° |
| 2026-05-07 06:05 | 43.31830 | 17.94858 | 33106 ft | 450 kts | 147° |
| 2026-05-07 06:05 | 43.26987 | 18.00311 | 33104 ft | 450 kts | 147° |
| 2026-05-07 06:06 | 43.22140 | 18.05741 | 33099 ft | 450 kts | 147° |
| 2026-05-07 06:06 | 43.17289 | 18.11165 | 33104 ft | 449 kts | 147° |
| 2026-05-07 06:07 | 43.12450 | 18.16564 | 33132 ft | 449 kts | 147° |
| 2026-05-07 06:07 | 43.07605 | 18.21960 | 33130 ft | 448 kts | 147° |
| 2026-05-07 06:08 | 43.02768 | 18.27336 | 33130 ft | 448 kts | 147° |
| 2026-05-07 06:08 | 42.97932 | 18.32693 | 33128 ft | 447 kts | 147° |
| 2026-05-07 06:09 | 42.93127 | 18.38005 | 33126 ft | 447 kts | 147° |
| 2026-05-07 06:09 | 42.88292 | 18.43346 | 33121 ft | 447 kts | 147° |
| 2026-05-07 06:10 | 42.83465 | 18.48682 | 33138 ft | 446 kts | 147° |
| 2026-05-07 06:10 | 42.78642 | 18.53993 | 33141 ft | 445 kts | 147° |
| 2026-05-07 06:11 | 42.73812 | 18.59284 | 33151 ft | 445 kts | 147° |
| 2026-05-07 06:11 | 42.68987 | 18.64558 | 33161 ft | 445 kts | 147° |
| 2026-05-07 06:12 | 42.64193 | 18.69795 | 33159 ft | 444 kts | 147° |
| 2026-05-07 06:12 | 42.59382 | 18.75049 | 33169 ft | 443 kts | 147° |
| 2026-05-07 06:13 | 42.54579 | 18.80282 | 33157 ft | 442 kts | 147° |
| 2026-05-07 06:13 | 42.49786 | 18.85490 | 33163 ft | 441 kts | 147° |
| 2026-05-07 06:14 | 42.44998 | 18.90679 | 33162 ft | 441 kts | 147° |
| 2026-05-07 06:14 | 42.40208 | 18.95860 | 33146 ft | 441 kts | 146° |
| 2026-05-07 06:15 | 42.35413 | 19.01044 | 33148 ft | 441 kts | 147° |
| 2026-05-07 06:15 | 42.30606 | 19.06213 | 33149 ft | 441 kts | 146° |
| 2026-05-07 06:16 | 42.25797 | 19.11375 | 33156 ft | 441 kts | 146° |
| 2026-05-07 06:16 | 42.20992 | 19.16538 | 33138 ft | 442 kts | 147° |
| 2026-05-07 06:17 | 42.16205 | 19.21673 | 33141 ft | 443 kts | 146° |
| 2026-05-07 06:17 | 42.11386 | 19.26841 | 33163 ft | 443 kts | 147° |
| 2026-05-07 06:18 | 42.06522 | 19.32022 | 33164 ft | 443 kts | 147° |
| 2026-05-07 06:18 | 42.01715 | 19.37121 | 33164 ft | 442 kts | 147° |
| 2026-05-07 06:19 | 41.96889 | 19.42245 | 33163 ft | 442 kts | 147° |
| 2026-05-07 06:19 | 41.92069 | 19.47361 | 33144 ft | 441 kts | 146° |
| 2026-05-07 06:20 | 41.87253 | 19.52465 | 33151 ft | 441 kts | 147° |
| 2026-05-07 06:20 | 41.82425 | 19.57568 | 33152 ft | 441 kts | 147° |
| 2026-05-07 06:21 | 41.77595 | 19.62654 | 33152 ft | 441 kts | 147° |
| 2026-05-07 06:21 | 41.72768 | 19.67725 | 33155 ft | 441 kts | 147° |
| 2026-05-07 06:22 | 41.67927 | 19.72801 | 33151 ft | 442 kts | 146° |
| 2026-05-07 06:22 | 41.60670 | 19.80408 | 33147 ft | 442 kts | 147° |
| 2026-05-07 06:23 | 41.55828 | 19.85476 | 33144 ft | 443 kts | 147° |
| 2026-05-07 06:23 | 41.50967 | 19.90554 | 33148 ft | 444 kts | 147° |
| 2026-05-07 06:24 | 41.46116 | 19.95589 | 33157 ft | 445 kts | 146° |
| 2026-05-07 06:24 | 41.41206 | 20.00692 | 33170 ft | 445 kts | 146° |
| 2026-05-07 06:25 | 41.36355 | 20.05725 | 33171 ft | 445 kts | 146° |
| 2026-05-07 06:25 | 41.31470 | 20.10779 | 33179 ft | 445 kts | 146° |
| 2026-05-07 06:26 | 41.26576 | 20.15830 | 33153 ft | 445 kts | 147° |
| 2026-05-07 06:26 | 41.21666 | 20.20884 | 33143 ft | 447 kts | 147° |
| 2026-05-07 06:27 | 41.16747 | 20.25951 | 33136 ft | 449 kts | 146° |
| 2026-05-07 06:27 | 41.11804 | 20.31039 | 33143 ft | 450 kts | 146° |
| 2026-05-07 06:28 | 41.06885 | 20.36082 | 33153 ft | 451 kts | 147° |
| 2026-05-07 06:28 | 41.01915 | 20.41155 | 33161 ft | 451 kts | 147° |
| 2026-05-07 06:29 | 40.96931 | 20.46226 | 33168 ft | 451 kts | 147° |
| 2026-05-07 06:29 | 40.91958 | 20.51292 | 33158 ft | 452 kts | 147° |
| 2026-05-07 06:30 | 40.86970 | 20.56370 | 33162 ft | 453 kts | 147° |
| 2026-05-07 06:30 | 40.81963 | 20.61450 | 33166 ft | 453 kts | 147° |
| 2026-05-07 06:31 | 40.76962 | 20.66517 | 33171 ft | 453 kts | 147° |
| 2026-05-07 06:31 | 40.71948 | 20.71589 | 33174 ft | 453 kts | 147° |
| 2026-05-07 06:32 | 40.66939 | 20.76645 | 33163 ft | 454 kts | 147° |
| 2026-05-07 06:32 | 40.61923 | 20.81694 | 33159 ft | 455 kts | 147° |
| 2026-05-07 06:33 | 40.56883 | 20.86755 | 33154 ft | 456 kts | 147° |
| 2026-05-07 06:33 | 40.51867 | 20.91776 | 33155 ft | 457 kts | 147° |
| 2026-05-07 06:34 | 40.46826 | 20.96875 | 33166 ft | 458 kts | 145° |
| 2026-05-07 06:34 | 40.41980 | 21.02354 | 33156 ft | 460 kts | 142° |
| 2026-05-07 06:35 | 40.37237 | 21.08017 | 33155 ft | 461 kts | 141° |
| 2026-05-07 06:35 | 40.32468 | 21.13620 | 33160 ft | 460 kts | 142° |
| 2026-05-07 06:36 | 40.27647 | 21.19149 | 33148 ft | 461 kts | 143° |
| 2026-05-07 06:36 | 40.22809 | 21.24664 | 33149 ft | 462 kts | 143° |
| 2026-05-07 06:37 | 40.17996 | 21.30159 | 33133 ft | 462 kts | 142° |
| 2026-05-07 06:37 | 40.13153 | 21.35688 | 33135 ft | 462 kts | 142° |
| 2026-05-07 06:38 | 40.08300 | 21.41212 | 33133 ft | 463 kts | 142° |
| 2026-05-07 06:38 | 40.03443 | 21.46734 | 33138 ft | 463 kts | 142° |
| 2026-05-07 06:39 | 39.98579 | 21.52254 | 33142 ft | 463 kts | 142° |
| 2026-05-07 06:39 | 39.93710 | 21.57759 | 33143 ft | 463 kts | 143° |
| 2026-05-07 06:40 | 39.88845 | 21.63254 | 33122 ft | 464 kts | 143° |
| 2026-05-07 06:40 | 39.83961 | 21.68771 | 33120 ft | 465 kts | 143° |
| 2026-05-07 06:41 | 39.79073 | 21.74277 | 33119 ft | 465 kts | 143° |
| 2026-05-07 06:41 | 39.74176 | 21.79775 | 33113 ft | 465 kts | 143° |
| 2026-05-07 06:42 | 39.69300 | 21.85239 | 33103 ft | 466 kts | 143° |
| 2026-05-07 06:42 | 39.64397 | 21.90729 | 33097 ft | 466 kts | 143° |
| 2026-05-07 06:43 | 39.59471 | 21.96230 | 33099 ft | 467 kts | 143° |
| 2026-05-07 06:43 | 39.54534 | 22.01728 | 33104 ft | 468 kts | 143° |
| 2026-05-07 06:44 | 39.50421 | 22.06304 | 33116 ft | 469 kts | 143° |
| 2026-05-07 06:44 | 39.45475 | 22.11796 | 33125 ft | 469 kts | 143° |
| 2026-05-07 06:45 | 39.40522 | 22.17283 | 33116 ft | 468 kts | 143° |
| 2026-05-07 06:45 | 39.35571 | 22.22759 | 33115 ft | 468 kts | 143° |
| 2026-05-07 06:46 | 39.30618 | 22.28229 | 33117 ft | 468 kts | 143° |
| 2026-05-07 06:46 | 39.25699 | 22.33653 | 33125 ft | 469 kts | 143° |
| 2026-05-07 06:47 | 39.20736 | 22.39118 | 33125 ft | 469 kts | 143° |
| 2026-05-07 06:47 | 39.15772 | 22.44561 | 33135 ft | 468 kts | 143° |
| 2026-05-07 06:48 | 39.10806 | 22.50006 | 33115 ft | 468 kts | 143° |
| 2026-05-07 06:48 | 39.05843 | 22.55439 | 33115 ft | 469 kts | 143° |
| 2026-05-07 06:49 | 39.00872 | 22.60866 | 33119 ft | 469 kts | 143° |
| 2026-05-07 06:49 | 38.95895 | 22.66283 | 33126 ft | 469 kts | 143° |
| 2026-05-07 06:50 | 38.90913 | 22.71699 | 33125 ft | 469 kts | 143° |
| 2026-05-07 06:50 | 38.85928 | 22.77108 | 33128 ft | 469 kts | 143° |
| 2026-05-07 06:51 | 38.80944 | 22.82504 | 33117 ft | 469 kts | 143° |
| 2026-05-07 06:51 | 38.75986 | 22.87864 | 32843 ft | 469 kts | 143° |
| 2026-05-07 06:52 | 38.73488 | 22.90561 | 32001 ft | 471 kts | 143° |
| 2026-05-07 06:52 | 38.70977 | 22.93271 | 31150 ft | 473 kts | 143° |
| 2026-05-07 06:52 | 38.68455 | 22.95989 | 30236 ft | 476 kts | 142° |
| 2026-05-07 06:52 | 38.65913 | 22.98726 | 29236 ft | 478 kts | 142° |
| 2026-05-07 06:53 | 38.63366 | 23.01465 | 28291 ft | 478 kts | 142° |
| 2026-05-07 06:53 | 38.60816 | 23.04204 | 27233 ft | 481 kts | 142° |
| 2026-05-07 06:53 | 38.58243 | 23.06963 | 26208 ft | 483 kts | 142° |
| 2026-05-07 06:53 | 38.55656 | 23.09740 | 25100 ft | 488 kts | 142° |
| 2026-05-07 06:54 | 38.53070 | 23.12512 | 24489 ft | 481 kts | 141° |
| 2026-05-07 06:54 | 38.50519 | 23.15245 | 23769 ft | 478 kts | 141° |
| 2026-05-07 06:54 | 38.47980 | 23.17962 | 22965 ft | 474 kts | 141° |
| 2026-05-07 06:54 | 38.45468 | 23.20644 | 22286 ft | 468 kts | 141° |
| 2026-05-07 06:55 | 38.42985 | 23.23294 | 21591 ft | 462 kts | 141° |
| 2026-05-07 06:55 | 38.40534 | 23.25905 | 20898 ft | 456 kts | 141° |
| 2026-05-07 06:55 | 38.38114 | 23.28479 | 20230 ft | 451 kts | 141° |
| 2026-05-07 06:55 | 38.35716 | 23.31029 | 19561 ft | 446 kts | 141° |
| 2026-05-07 06:56 | 38.33375 | 23.33521 | 18922 ft | 442 kts | 141° |
| 2026-05-07 06:56 | 38.31031 | 23.36016 | 18260 ft | 437 kts | 141° |
| 2026-05-07 06:56 | 38.28711 | 23.38480 | 17614 ft | 431 kts | 141° |
| 2026-05-07 06:56 | 38.26426 | 23.40902 | 17024 ft | 424 kts | 141° |
| 2026-05-07 06:57 | 38.24179 | 23.43283 | 16453 ft | 418 kts | 141° |
| 2026-05-07 06:57 | 38.21955 | 23.45633 | 15902 ft | 412 kts | 142° |
| 2026-05-07 06:57 | 38.19593 | 23.47625 | 15347 ft | 404 kts | 154° |
| 2026-05-07 06:57 | 38.17028 | 23.48979 | 14835 ft | 396 kts | 165° |
| 2026-05-07 06:58 | 38.14358 | 23.49680 | 14321 ft | 387 kts | 176° |
| 2026-05-07 06:58 | 38.11694 | 23.49748 | 13781 ft | 380 kts | 187° |
| 2026-05-07 06:58 | 38.09096 | 23.49282 | 13237 ft | 376 kts | 192° |
| 2026-05-07 06:58 | 38.06530 | 23.48744 | 12701 ft | 373 kts | 191° |
| 2026-05-07 06:59 | 38.03980 | 23.48218 | 12165 ft | 370 kts | 191° |
| 2026-05-07 06:59 | 38.01448 | 23.47701 | 11616 ft | 367 kts | 191° |
| 2026-05-07 06:59 | 37.98940 | 23.47190 | 11181 ft | 360 kts | 191° |
| 2026-05-07 06:59 | 37.96526 | 23.46703 | 11077 ft | 344 kts | 191° |
| 2026-05-07 07:00 | 37.94214 | 23.46236 | 10954 ft | 329 kts | 191° |
| 2026-05-07 07:00 | 37.92004 | 23.45787 | 10830 ft | 315 kts | 191° |
| 2026-05-07 07:00 | 37.89907 | 23.45356 | 10680 ft | 304 kts | 191° |
| 2026-05-07 07:00 | 37.87841 | 23.44929 | 10476 ft | 296 kts | 191° |
| 2026-05-07 07:01 | 37.85810 | 23.44508 | 10415 ft | 297 kts | 191° |
| 2026-05-07 07:01 | 37.83769 | 23.44084 | 10316 ft | 297 kts | 191° |
| 2026-05-07 07:01 | 37.81732 | 23.43666 | 10179 ft | 296 kts | 190° |
| 2026-05-07 07:01 | 37.79669 | 23.43638 | 9791 ft | 301 kts | 168° |
| 2026-05-07 07:02 | 37.77796 | 23.44809 | 9356 ft | 300 kts | 139° |
| 2026-05-07 07:02 | 37.76535 | 23.46845 | 8784 ft | 293 kts | 113° |
| 2026-05-07 07:02 | 37.76090 | 23.49297 | 8272 ft | 279 kts | 94° |
| 2026-05-07 07:02 | 37.75936 | 23.51656 | 7972 ft | 263 kts | 95° |
| 2026-05-07 07:03 | 37.75757 | 23.53919 | 7504 ft | 255 kts | 96° |
| 2026-05-07 07:03 | 37.75572 | 23.56109 | 7181 ft | 250 kts | 97° |
| 2026-05-07 07:03 | 37.75383 | 23.58306 | 6804 ft | 252 kts | 97° |
| 2026-05-07 07:03 | 37.75195 | 23.60506 | 6493 ft | 250 kts | 97° |
| 2026-05-07 07:04 | 37.75012 | 23.62700 | 6103 ft | 251 kts | 97° |
| 2026-05-07 07:04 | 37.74836 | 23.64864 | 5663 ft | 245 kts | 97° |
| 2026-05-07 07:04 | 37.74662 | 23.66992 | 5144 ft | 241 kts | 97° |
| 2026-05-07 07:04 | 37.74489 | 23.69120 | 4721 ft | 245 kts | 98° |
| 2026-05-07 07:05 | 37.74318 | 23.71242 | 4345 ft | 244 kts | 97° |
| 2026-05-07 07:05 | 37.74297 | 23.73378 | 4069 ft | 242 kts | 79° |
| 2026-05-07 07:05 | 37.74954 | 23.75326 | 3885 ft | 245 kts | 53° |
| 2026-05-07 07:05 | 37.76192 | 23.76785 | 3785 ft | 240 kts | 37° |
| 2026-05-07 07:06 | 37.77504 | 23.78014 | 3637 ft | 231 kts | 37° |
| 2026-05-07 07:06 | 37.78762 | 23.79196 | 3528 ft | 218 kts | 37° |
| 2026-05-07 07:06 | 37.79929 | 23.80299 | 3277 ft | 208 kts | 37° |
| 2026-05-07 07:06 | 37.81067 | 23.81376 | 3021 ft | 200 kts | 37° |
| 2026-05-07 07:07 | 37.82152 | 23.82403 | 2772 ft | 191 kts | 37° |
| 2026-05-07 07:07 | 37.83191 | 23.83387 | 2523 ft | 181 kts | 37° |
| 2026-05-07 07:07 | 37.84172 | 23.84317 | 2286 ft | 171 kts | 37° |
| 2026-05-07 07:07 | 37.85094 | 23.85191 | 2070 ft | 162 kts | 37° |
| 2026-05-07 07:08 | 37.85986 | 23.86036 | 1855 ft | 158 kts | 38° |
| 2026-05-07 07:08 | 37.86862 | 23.86867 | 1646 ft | 158 kts | 37° |
| 2026-05-07 07:08 | 37.87737 | 23.87697 | 1428 ft | 157 kts | 38° |
| 2026-05-07 07:08 | 37.88611 | 23.88526 | 1227 ft | 156 kts | 38° |
| 2026-05-07 07:09 | 37.89474 | 23.89345 | 1013 ft | 154 kts | 37° |
| 2026-05-07 07:09 | 37.90325 | 23.90153 | 809 ft | 152 kts | 37° |
| 2026-05-07 07:09 | 37.91169 | 23.90954 | 611 ft | 151 kts | 37° |
| 2026-05-07 07:09 | 37.92003 | 23.91746 | 402 ft | 150 kts | 37° |
| 2026-05-07 07:10 | 37.92815 | 23.92517 | 298 ft | 134 kts | 37° |
| 2026-05-07 07:10 | 37.93422 | 23.93095 | 294 ft | 84 kts | 37° |
| 2026-05-07 07:10 | 37.93765 | 23.93422 | 294 ft | 49 kts | 37° |
| 2026-05-07 07:10 | 37.93907 | 23.93655 | 297 ft | 26 kts | 67° |
| 2026-05-07 07:11 | 37.93971 | 23.93824 | 301 ft | 18 kts | 63° |
| 2026-05-07 07:11 | 37.94032 | 23.93958 | 300 ft | 17 kts | 51° |
| 2026-05-07 07:11 | 37.94126 | 23.94051 | 301 ft | 17 kts | 36° |
| 2026-05-07 07:11 | 37.94226 | 23.94140 | 303 ft | 18 kts | 36° |
| 2026-05-07 07:12 | 37.94329 | 23.94234 | 303 ft | 19 kts | 36° |
| 2026-05-07 07:12 | 37.94431 | 23.94339 | 303 ft | 19 kts | 37° |
| 2026-05-07 07:12 | 37.94546 | 23.94447 | 302 ft | 22 kts | 36° |
| 2026-05-07 07:12 | 37.94666 | 23.94563 | 303 ft | 19 kts | 40° |
| 2026-05-07 07:13 | 37.94643 | 23.94700 | 303 ft | 19 kts | 125° |
| 2026-05-07 07:13 | 37.94555 | 23.94847 | 301 ft | 23 kts | 127° |
| 2026-05-07 07:13 | 37.94453 | 23.95019 | 302 ft | 26 kts | 127° |
| 2026-05-07 07:13 | 37.94340 | 23.95183 | 303 ft | 21 kts | 156° |
| 2026-05-07 07:14 | 37.94255 | 23.95145 | 301 ft | 12 kts | 215° |
| 2026-05-07 07:14 | 37.94249 | 23.95140 | 301 ft | 0 kts | 215° |